Terminal Aerodrome Forecast
Issued by NWS

Home | Current Version | Previous Version | Graphics & Text | Print | Product List | Glossary On
Versions: 1 2 3 4 5 6 7 8 9 10 11 12 13 14 15 16 17 18 19
000
FTUS42 KMHX 272059 AAA
TAFOAJ
TAF AMD
KOAJ 272059Z 2721/2818 02010G18KT 6SM -RA BR SCT010 OVC035
      TEMPO 2721/2723 BKN010
     FM280500 35008KT P6SM OVC015
     FM281400 32011KT P6SM OVC040
      AMD LTD TO CLD VIS AND WIND=

USA.gov is the U.S. government's official web portal to all federal, state and local government web resources and services.